In Rescue
 
Open Full Screen Window  High Contrast Mode
Wind Gusting 14 knots
11
May 25, 2022 10:36 PM EDT
Present Weather: Rain
Weather Information
Wind Direction
  080 °
Wind Speed
  11 kt (13 mph)
Wind Gust
  14 kt (16 mph)
Altimeter
29.88 in
Visibility
10 SM
Temperature
09° C
48° F
Dewpoint
09° C
48° F
Humidity
100%
Sky Condition
Overcast @ 200 ft
LIFR

METAR KSJX 260236Z AUTO 08011G14KT 10SM RA OVC002 09/09 A2988 RMK AO2 T00900090

FAA Disclaimer: The data displayed is for advisory purposes only and is not to be used for flight planning or operations.